Time;durP1;ratioP1;P1;durP2;ratioP2;P2;SDS_P1;SDS_P2;PMS_P1;PMS_P2;Temp;Humidity;BMP_temperature;BMP_pressure;BME280_temperature;BME280_humidity;BME280_pressure;Samples;Min_cycle;Max_cycle;Signal;HPM_P1;HPM_P2
2021/08/30 00:00:17;;;;;;;2.30;2.00;;;;;22.30;100731.00;;;;2072020;28;20202;-67
2021/08/30 00:01:17;;;;;;;1.87;1.77;;;;;22.20;100726.00;;;;2072288;28;20205;-68
2021/08/30 00:02:18;;;;;;;1.70;1.60;;;;;22.20;100730.00;;;;2072189;28;20214;-67
2021/08/30 00:03:18;;;;;;;1.70;1.60;;;;;22.20;100734.00;;;;2072475;28;20684;-67
2021/08/30 00:04:19;;;;;;;1.73;1.63;;;;;22.30;100727.00;;;;2070352;28;20799;-67
2021/08/30 00:05:19;;;;;;;1.70;1.60;;;;;22.20;100740.00;;;;2063791;28;20215;-68
2021/08/30 00:06:19;;;;;;;1.80;1.70;;;;;22.20;100737.00;;;;2071635;28;20261;-67
2021/08/30 00:07:20;;;;;;;2.67;2.00;;;;;22.20;100737.00;;;;2071713;28;20218;-68
2021/08/30 00:08:20;;;;;;;1.70;1.60;;;;;22.20;100730.00;;;;2071764;28;20711;-67
2021/08/30 00:09:20;;;;;;;1.80;1.70;;;;;22.20;100729.00;;;;2071470;28;20293;-68
2021/08/30 00:10:21;;;;;;;1.83;1.73;;;;;22.20;100734.00;;;;2071889;28;20210;-68
2021/08/30 00:11:21;;;;;;;1.97;1.80;;;;;22.20;100732.00;;;;2071745;28;20202;-68
2021/08/30 00:12:22;;;;;;;1.87;1.70;;;;;22.20;100732.00;;;;2071762;28;20281;-67
2021/08/30 00:13:22;;;;;;;2.10;1.90;;;;;22.20;100737.00;;;;2071605;28;20210;-67
2021/08/30 00:14:22;;;;;;;1.90;1.80;;;;;22.20;100736.00;;;;2072142;28;20851;-67
2021/08/30 00:15:23;;;;;;;1.83;1.73;;;;;22.20;100734.00;;;;2070939;28;20228;-68
2021/08/30 00:16:23;;;;;;;1.80;1.70;;;;;22.20;100737.00;;;;2072195;28;20248;-67
2021/08/30 00:17:23;;;;;;;1.80;1.70;;;;;22.20;100736.00;;;;2072301;28;20220;-67
2021/08/30 00:18:24;;;;;;;1.97;1.80;;;;;22.20;100731.00;;;;2071885;28;20210;-68
2021/08/30 00:19:25;;;;;;;1.70;1.60;;;;;22.20;100735.00;;;;2071905;28;20214;-68
2021/08/30 00:20:25;;;;;;;2.30;1.90;;;;;22.20;100746.00;;;;2071091;28;20480;-68
2021/08/30 00:21:25;;;;;;;2.03;1.93;;;;;22.20;100746.00;;;;2062009;28;20215;-68
2021/08/30 00:22:26;;;;;;;2.53;2.33;;;;;22.20;100742.00;;;;2066330;28;20256;-66
2021/08/30 00:23:26;;;;;;;1.90;1.80;;;;;22.20;100736.00;;;;2068991;28;20211;-67
2021/08/30 00:24:26;;;;;;;1.70;1.60;;;;;22.20;100745.00;;;;2071503;28;20218;-67
2021/08/30 00:25:27;;;;;;;2.10;2.00;;;;;22.20;100741.00;;;;2071716;28;20241;-68
2021/08/30 00:26:27;;;;;;;2.10;2.00;;;;;22.20;100743.00;;;;2071488;28;20211;-67
2021/08/30 00:27:28;;;;;;;1.80;1.70;;;;;22.20;100739.00;;;;2071747;28;20241;-68
2021/08/30 00:28:29;;;;;;;1.95;1.85;;;;;22.20;100731.00;;;;2071604;28;20305;-67
2021/08/30 00:29:29;;;;;;;2.03;1.90;;;;;22.20;100734.00;;;;2071441;28;20218;-67
2021/08/30 00:30:29;;;;;;;1.90;1.80;;;;;22.20;100729.00;;;;2071637;28;20389;-68
2021/08/30 00:31:30;;;;;;;2.30;2.10;;;;;22.20;100743.00;;;;2071417;28;20334;-67
2021/08/30 00:32:31;;;;;;;2.40;2.20;;;;;22.20;100727.00;;;;2071636;28;20221;-67
2021/08/30 00:33:31;;;;;;;2.10;2.00;;;;;22.20;100729.00;;;;2071476;28;20826;-67
2021/08/30 00:34:32;;;;;;;1.90;1.80;;;;;22.20;100727.00;;;;2071396;28;20206;-67
2021/08/30 00:35:32;;;;;;;2.40;2.20;;;;;22.20;100730.00;;;;2071548;28;20226;-67
2021/08/30 00:36:32;;;;;;;2.07;1.97;;;;;22.20;100731.00;;;;2071517;28;20282;-68
2021/08/30 00:37:33;;;;;;;2.33;2.13;;;;;22.20;100723.00;;;;2067658;28;20225;-68
2021/08/30 00:38:34;;;;;;;2.00;1.90;;;;;22.30;100728.00;;;;2072376;28;20906;-68
2021/08/30 00:39:34;;;;;;;1.97;1.80;;;;;22.30;100731.00;;;;2073158;28;20290;-67
2021/08/30 00:40:35;;;;;;;2.00;1.90;;;;;22.20;100730.00;;;;2073239;28;20956;-67
2021/08/30 00:41:36;;;;;;;2.10;2.00;;;;;22.20;100730.00;;;;2073363;28;20224;-68
2021/08/30 00:42:36;;;;;;;2.13;2.03;;;;;22.20;100731.00;;;;2072488;28;20972;-67
2021/08/30 00:43:36;;;;;;;2.40;2.23;;;;;22.20;100728.00;;;;2071516;28;20210;-68
2021/08/30 00:44:37;;;;;;;1.93;1.83;;;;;22.20;100733.00;;;;2072008;28;20272;-68
2021/08/30 00:45:37;;;;;;;1.90;1.80;;;;;22.20;100734.00;;;;2072576;28;20688;-67
2021/08/30 00:46:37;;;;;;;2.17;2.07;;;;;22.20;100724.00;;;;2072775;28;20768;-68
2021/08/30 00:47:38;;;;;;;2.47;2.27;;;;;22.20;100723.00;;;;2073031;28;20221;-68
2021/08/30 00:48:38;;;;;;;2.10;1.90;;;;;22.20;100728.00;;;;2072981;28;20697;-68
2021/08/30 00:49:39;;;;;;;1.73;1.63;;;;;22.20;100722.00;;;;2072507;28;20217;-68
2021/08/30 00:50:39;;;;;;;2.33;2.13;;;;;22.20;100732.00;;;;2072750;28;20217;-68
2021/08/30 00:51:39;;;;;;;2.27;2.13;;;;;22.20;100718.00;;;;2064595;28;20221;-68
2021/08/30 00:52:40;;;;;;;2.00;1.90;;;;;22.20;100731.00;;;;2064484;28;20215;-68
2021/08/30 00:53:43;;;;;;;2.40;2.20;;;;;22.20;100728.00;;;;2072615;28;20214;-67
2021/08/30 00:54:44;;;;;;;2.20;2.10;;;;;22.20;100735.00;;;;2061020;28;20273;-67
2021/08/30 00:55:44;;;;;;;1.77;1.67;;;;;22.20;100738.00;;;;2064428;28;20219;-67
2021/08/30 00:56:45;;;;;;;3.00;2.10;;;;;22.20;100731.00;;;;2070741;28;20230;-67
2021/08/30 00:57:46;;;;;;;2.50;2.30;;;;;22.20;100732.00;;;;2072633;28;20226;-67
2021/08/30 00:58:46;;;;;;;1.93;1.83;;;;;22.20;100737.00;;;;2072428;28;20213;-68
2021/08/30 00:59:47;;;;;;;2.00;1.90;;;;;22.20;100724.00;;;;2073135;28;20214;-68
2021/08/30 01:00:47;;;;;;;2.43;2.23;;;;;22.20;100732.00;;;;2073282;28;20221;-67
2021/08/30 01:01:47;;;;;;;2.20;2.10;;;;;22.20;100728.00;;;;2072795;28;21550;-67
2021/08/30 01:02:48;;;;;;;2.30;2.10;;;;;22.20;100722.00;;;;2072974;28;20210;-68
2021/08/30 01:03:49;;;;;;;2.23;1.97;;;;;22.20;100727.00;;;;2072540;28;20218;-68
2021/08/30 01:04:49;;;;;;;1.93;1.83;;;;;22.20;100733.00;;;;2064368;28;20724;-67
2021/08/30 01:05:52;;;;;;;2.33;2.13;;;;;22.20;100731.00;;;;2072453;28;20535;-67
2021/08/30 01:07:12;;;;;;;2.08;1.95;;;;;22.20;100732.00;;;;2064342;28;20309;-67
2021/08/30 01:08:20;;;;;;;2.38;2.17;;;;;22.20;100726.00;;;;2065168;28;20269;-67
2021/08/30 01:09:36;;;;;;;2.17;1.98;;;;;22.20;100734.00;;;;2053967;28;20219;-67
2021/08/30 01:10:52;;;;;;;2.40;2.20;;;;;22.20;100731.00;;;;2058187;28;20219;-67
2021/08/30 01:12:02;;;;;;;2.60;2.40;;;;;22.20;100731.00;;;;2068422;28;20248;-67
2021/08/30 01:13:06;;;;;;;2.03;1.92;;;;;22.20;100727.00;;;;2072033;28;20213;-67
2021/08/30 01:14:07;;;;;;;1.85;1.70;;;;;22.20;100739.00;;;;2072540;28;20648;-67
2021/08/30 01:15:32;;;;;;;2.87;2.30;;;;;22.20;100733.00;;;;2072515;28;20309;-68
2021/08/30 01:16:33;;;;;;;2.05;1.95;;;;;22.20;100732.00;;;;2072560;28;20217;-68
2021/08/30 01:17:36;;;;;;;2.33;2.13;;;;;22.20;100743.00;;;;2072306;28;20238;-68
2021/08/30 01:18:37;;;;;;;2.17;2.05;;;;;22.20;100743.00;;;;2072615;28;20249;-67
2021/08/30 01:19:42;;;;;;;2.30;2.10;;;;;22.20;100738.00;;;;2072344;28;20206;-67
2021/08/30 01:21:00;;;;;;;2.85;2.65;;;;;22.20;100746.00;;;;2072448;28;20287;-67
2021/08/30 01:22:03;;;;;;;2.40;2.20;;;;;22.20;100741.00;;;;2072436;28;20217;-67
2021/08/30 01:23:04;;;;;;;2.45;2.25;;;;;22.30;100746.00;;;;2073026;28;20214;-67
2021/08/30 01:24:15;;;;;;;3.00;2.33;;;;;22.20;100741.00;;;;2062635;28;20728;-67
2021/08/30 01:25:16;;;;;;;2.45;2.25;;;;;22.20;100740.00;;;;2070831;28;20214;-68
2021/08/30 01:26:17;;;;;;;2.35;2.15;;;;;22.20;100742.00;;;;2072266;28;20226;-68
2021/08/30 01:27:17;;;;;;;3.07;2.87;;;;;22.20;100735.00;;;;2072547;28;20214;-68
2021/08/30 01:28:19;;;;;;;2.40;2.20;;;;;22.20;100745.00;;;;2072444;28;20221;-68
2021/08/30 01:29:30;;;;;;;2.20;2.10;;;;;22.20;100746.00;;;;2064312;28;20250;-67
2021/08/30 01:30:30;;;;;;;2.50;2.30;;;;;22.20;100739.00;;;;2069494;28;20226;-68
2021/08/30 01:31:49;;;;;;;2.50;2.30;;;;;22.20;100745.00;;;;2072144;28;20234;-67
2021/08/30 01:32:53;;;;;;;2.65;2.45;;;;;22.20;100733.00;;;;2072497;28;20619;-68
2021/08/30 01:33:54;;;;;;;2.58;2.38;;;;;22.20;100743.00;;;;2071938;28;20241;-67
2021/08/30 01:34:55;;;;;;;2.17;2.00;;;;;22.20;100736.00;;;;2072317;28;20213;-67
2021/08/30 01:35:56;;;;;;;2.60;2.42;;;;;22.20;100741.00;;;;2063245;28;20246;-67
2021/08/30 01:36:56;;;;;;;2.80;2.60;;;;;22.20;100739.00;;;;2064196;28;20214;-67
2021/08/30 01:37:58;;;;;;;2.60;2.40;;;;;22.20;100746.00;;;;2070608;28;20206;-67
2021/08/30 01:38:59;;;;;;;3.03;2.78;;;;;22.20;100745.00;;;;2068411;28;20253;-67
2021/08/30 01:40:00;;;;;;;2.70;2.50;;;;;22.20;100741.00;;;;2063092;28;20257;-68
2021/08/30 01:41:00;;;;;;;2.60;2.40;;;;;22.20;100748.00;;;;2069764;28;20747;-67
2021/08/30 01:42:00;;;;;;;2.80;2.60;;;;;22.20;100737.00;;;;2072260;28;20206;-67
2021/08/30 01:43:01;;;;;;;2.13;1.83;;;;;22.20;100738.00;;;;2072230;28;20241;-67
2021/08/30 01:44:01;;;;;;;2.77;2.57;;;;;22.20;100735.00;;;;2071594;28;20602;-68
2021/08/30 01:45:03;;;;;;;2.83;2.63;;;;;22.20;100736.00;;;;2064081;28;20678;-67
2021/08/30 01:46:04;;;;;;;2.10;2.00;;;;;22.20;100734.00;;;;2064119;28;20306;-67
2021/08/30 01:47:04;;;;;;;2.60;2.40;;;;;22.20;100738.00;;;;2064052;28;20257;-68
2021/08/30 01:48:04;;;;;;;2.77;2.57;;;;;22.20;100747.00;;;;2072260;28;20214;-68
2021/08/30 01:49:05;;;;;;;2.50;2.30;;;;;22.20;100745.00;;;;2071458;28;20305;-68
2021/08/30 01:50:06;;;;;;;3.28;2.85;;;;;22.20;100742.00;;;;2056164;28;20741;-67
2021/08/30 01:51:06;;;;;;;2.47;2.13;;;;;22.20;100751.00;;;;2063966;28;20203;-67
2021/08/30 01:52:07;;;;;;;6.33;2.90;;;;;22.20;100740.00;;;;2060313;28;20299;-68
2021/08/30 01:53:07;;;;;;;2.60;2.40;;;;;22.20;100750.00;;;;2051651;28;20212;-68
2021/08/30 01:54:08;;;;;;;2.70;2.50;;;;;22.20;100749.00;;;;2063653;28;20258;-67
2021/08/30 01:56:20;;;;;;;2.28;2.10;;;;;22.20;100749.00;;;;2065693;28;20244;-67
2021/08/30 01:57:23;;;;;;;2.73;2.53;;;;;22.20;100743.00;;;;2072278;28;20214;-68
2021/08/30 02:00:48;;;;;;;2.63;2.40;;;;;22.20;100726.00;;;;2065959;28;20223;-67
2021/08/30 02:01:48;;;;;;;2.42;2.22;;;;;22.20;100750.00;;;;2072217;28;20245;-68
2021/08/30 02:02:49;;;;;;;2.40;2.23;;;;;22.20;100757.00;;;;2071829;28;20244;-67
2021/08/30 02:03:49;;;;;;;2.77;2.57;;;;;22.20;100752.00;;;;2072024;28;20217;-67
2021/08/30 02:04:49;;;;;;;2.33;2.17;;;;;22.20;100753.00;;;;2070884;28;20214;-67
2021/08/30 02:05:50;;;;;;;3.20;3.00;;;;;22.20;100753.00;;;;2071562;28;20206;-67
2021/08/30 02:06:51;;;;;;;2.60;2.40;;;;;22.20;100753.00;;;;2072661;28;20222;-67
2021/08/30 02:07:51;;;;;;;2.60;2.40;;;;;22.20;100756.00;;;;2071767;28;20212;-68
2021/08/30 02:08:51;;;;;;;2.70;2.50;;;;;22.20;100747.00;;;;2071905;28;20220;-68
2021/08/30 02:09:52;;;;;;;3.10;2.90;;;;;22.20;100754.00;;;;2071878;28;20206;-67
2021/08/30 02:10:55;;;;;;;2.83;2.63;;;;;22.20;100751.00;;;;2072175;28;20263;-68
2021/08/30 02:11:55;;;;;;;3.08;2.78;;;;;22.20;100746.00;;;;2072604;28;20909;-67
2021/08/30 02:12:56;;;;;;;2.97;2.77;;;;;22.20;100755.00;;;;2061398;28;20222;-68
2021/08/30 02:13:57;;;;;;;2.70;2.50;;;;;22.20;100743.00;;;;2044789;28;20302;-67
2021/08/30 02:14:57;;;;;;;2.63;2.42;;;;;22.20;100744.00;;;;2063808;28;20633;-68
2021/08/30 02:15:59;;;;;;;3.07;2.87;;;;;22.20;100746.00;;;;2072657;28;20218;-67
2021/08/30 02:17:01;;;;;;;2.80;2.60;;;;;22.20;100757.00;;;;2071453;28;20202;-68
2021/08/30 02:18:06;;;;;;;2.80;2.60;;;;;22.20;100749.00;;;;2064100;28;20661;-67
2021/08/30 02:19:28;;;;;;;2.60;2.40;;;;;22.20;100755.00;;;;2054541;28;20219;-68
2021/08/30 02:20:29;;;;;;;2.90;2.70;;;;;22.20;100750.00;;;;2059082;28;20296;-68
2021/08/30 02:21:41;;;;;;;2.40;2.20;;;;;22.20;100753.00;;;;2063708;28;20242;-68
2021/08/30 02:22:42;;;;;;;2.40;2.20;;;;;22.20;100753.00;;;;2071820;28;20258;-67
2021/08/30 02:23:52;;;;;;;2.90;2.70;;;;;22.20;100748.00;;;;2068136;28;20214;-68
2021/08/30 02:24:54;;;;;;;3.08;2.80;;;;;22.20;100750.00;;;;2071365;28;20553;-68
2021/08/30 02:25:55;;;;;;;2.90;2.70;;;;;22.20;100744.00;;;;2071320;28;20233;-67
2021/08/30 02:27:07;;;;;;;2.93;2.63;;;;;22.20;100745.00;;;;2063062;28;20611;-67
2021/08/30 02:28:07;;;;;;;2.95;2.75;;;;;22.20;100749.00;;;;2061930;28;20211;-67
2021/08/30 02:29:07;;;;;;;2.80;2.60;;;;;22.20;100752.00;;;;2071463;28;20221;-68
2021/08/30 02:30:17;;;;;;;3.00;2.70;;;;;22.20;100738.00;;;;2071341;28;20775;-68
2021/08/30 02:31:17;;;;;;;3.17;2.90;;;;;22.20;100753.00;;;;2064178;28;20223;-67
2021/08/30 02:32:18;;;;;;;2.93;2.67;;;;;22.20;100753.00;;;;2071303;28;20795;-68
2021/08/30 02:33:19;;;;;;;2.60;2.40;;;;;22.20;100749.00;;;;2071565;28;20214;-67
2021/08/30 02:34:20;;;;;;;3.20;2.90;;;;;22.20;100747.00;;;;2071404;28;20731;-67
2021/08/30 02:35:22;;;;;;;2.80;2.60;;;;;22.20;100750.00;;;;2070678;28;20226;-67
2021/08/30 02:36:22;;;;;;;3.00;2.80;;;;;22.20;100753.00;;;;2071056;28;20242;-68
2021/08/30 02:37:23;;;;;;;2.70;2.50;;;;;22.20;100753.00;;;;2071192;28;20704;-67
2021/08/30 02:38:23;;;;;;;2.60;2.40;;;;;22.20;100751.00;;;;2059540;28;20222;-67
2021/08/30 02:39:23;;;;;;;3.20;2.90;;;;;22.20;100749.00;;;;2059283;28;20614;-67
2021/08/30 02:40:27;;;;;;;2.70;2.50;;;;;22.20;100741.00;;;;2071552;28;20308;-67
2021/08/30 02:41:27;;;;;;;3.20;3.00;;;;;22.20;100750.00;;;;2061791;28;20585;-68
2021/08/30 02:42:28;;;;;;;3.03;2.80;;;;;22.20;100748.00;;;;2043617;28;20224;-68
2021/08/30 02:43:29;;;;;;;3.13;2.92;;;;;22.20;100737.00;;;;2047591;28;20650;-68
2021/08/30 02:44:29;;;;;;;3.40;3.10;;;;;22.20;100746.00;;;;2054475;28;20224;-67
2021/08/30 02:45:29;;;;;;;3.73;3.43;;;;;22.20;100753.00;;;;2059686;28;20224;-67
2021/08/30 02:46:30;;;;;;;2.90;2.70;;;;;22.20;100745.00;;;;2066953;28;20224;-68
2021/08/30 02:47:30;;;;;;;2.90;2.70;;;;;22.20;100751.00;;;;2075147;28;20222;-67
2021/08/30 02:48:31;;;;;;;3.10;2.90;;;;;22.20;100747.00;;;;2058901;28;20230;-68
2021/08/30 02:49:31;;;;;;;2.97;2.77;;;;;22.20;100747.00;;;;2060291;28;20737;-68
2021/08/30 02:50:31;;;;;;;2.93;2.73;;;;;22.20;100747.00;;;;2055658;28;20763;-68
2021/08/30 02:51:32;;;;;;;2.63;2.43;;;;;22.20;100747.00;;;;2055600;28;20231;-67
2021/08/30 02:52:32;;;;;;;3.10;2.90;;;;;22.20;100739.00;;;;2063406;28;20254;-68
2021/08/30 02:53:33;;;;;;;2.70;2.50;;;;;22.20;100748.00;;;;2059393;28;20274;-67
2021/08/30 02:54:33;;;;;;;2.70;2.50;;;;;22.20;100743.00;;;;2059355;28;20793;-68
2021/08/30 02:55:34;;;;;;;3.30;3.10;;;;;22.20;100741.00;;;;2063375;28;20223;-68
2021/08/30 02:56:35;;;;;;;2.93;2.73;;;;;22.20;100748.00;;;;2071681;28;20774;-68
2021/08/30 02:57:35;;;;;;;3.00;2.80;;;;;22.20;100746.00;;;;2072113;28;20973;-66
2021/08/30 02:58:36;;;;;;;2.93;2.73;;;;;22.20;100738.00;;;;2071821;28;20221;-67
2021/08/30 02:59:36;;;;;;;3.00;2.80;;;;;22.20;100743.00;;;;2071622;28;20237;-68
2021/08/30 03:00:36;;;;;;;3.27;3.07;;;;;22.20;100749.00;;;;2071348;28;20222;-68
2021/08/30 03:01:37;;;;;;;3.03;2.83;;;;;22.20;100740.00;;;;2062878;28;20222;-68
2021/08/30 03:02:37;;;;;;;2.87;2.67;;;;;22.20;100740.00;;;;2071744;28;20781;-67
2021/08/30 03:03:38;;;;;;;3.00;2.80;;;;;22.20;100738.00;;;;2071503;28;20218;-68
2021/08/30 03:04:38;;;;;;;3.10;2.90;;;;;22.20;100744.00;;;;2071823;28;20736;-67
2021/08/30 03:05:39;;;;;;;2.93;2.73;;;;;22.20;100739.00;;;;2063394;28;20625;-68
2021/08/30 03:06:39;;;;;;;2.90;2.70;;;;;22.20;100728.00;;;;2071604;28;20253;-68
2021/08/30 03:07:40;;;;;;;3.50;3.20;;;;;22.20;100736.00;;;;2071607;28;20210;-67
2021/08/30 03:08:40;;;;;;;3.30;3.10;;;;;22.20;100740.00;;;;2055427;28;20243;-68
2021/08/30 03:09:40;;;;;;;3.13;2.90;;;;;22.20;100745.00;;;;2063427;28;20932;-68
2021/08/30 03:10:41;;;;;;;3.50;3.20;;;;;22.20;100741.00;;;;2067721;28;20715;-67
2021/08/30 03:11:41;;;;;;;3.33;3.07;;;;;22.20;100745.00;;;;2059664;28;20219;-67
2021/08/30 03:12:42;;;;;;;3.43;3.23;;;;;22.20;100743.00;;;;2063576;28;20211;-68
2021/08/30 03:13:42;;;;;;;3.10;2.70;;;;;22.20;100746.00;;;;2055336;28;20220;-67
2021/08/30 03:14:43;;;;;;;3.27;3.03;;;;;22.20;100740.00;;;;2063471;28;20834;-68
2021/08/30 03:15:44;;;;;;;2.70;2.50;;;;;22.20;100744.00;;;;2063449;28;20230;-68
2021/08/30 03:16:44;;;;;;;3.33;3.10;;;;;22.20;100743.00;;;;2063318;28;20294;-68
2021/08/30 03:17:45;;;;;;;3.60;3.30;;;;;22.20;100744.00;;;;2071467;28;20219;-67
2021/08/30 03:18:45;;;;;;;3.37;3.07;;;;;22.20;100744.00;;;;2060356;28;20224;-67
2021/08/30 03:19:45;;;;;;;3.00;2.80;;;;;22.20;100746.00;;;;2051001;28;20639;-68
2021/08/30 03:20:46;;;;;;;2.83;2.63;;;;;22.20;100737.00;;;;2062759;28;20571;-67
2021/08/30 03:21:46;;;;;;;3.30;3.10;;;;;22.20;100742.00;;;;2063532;28;20211;-67
2021/08/30 03:22:47;;;;;;;3.77;3.47;;;;;22.20;100747.00;;;;2047404;29;20289;-68
2021/08/30 03:23:47;;;;;;;3.67;3.37;;;;;22.20;100748.00;;;;2059548;28;20208;-67
2021/08/30 03:24:47;;;;;;;3.20;3.00;;;;;22.20;100749.00;;;;2063459;28;20231;-68
2021/08/30 03:25:48;;;;;;;3.03;2.83;;;;;22.20;100747.00;;;;2055328;28;20208;-68
2021/08/30 03:26:48;;;;;;;3.10;2.90;;;;;22.20;100750.00;;;;2063122;28;20215;-67
2021/08/30 03:27:48;;;;;;;3.30;3.10;;;;;22.20;100743.00;;;;2063342;28;20222;-68
2021/08/30 03:28:50;;;;;;;3.80;3.53;;;;;22.20;100746.00;;;;2063370;28;20297;-68
2021/08/30 03:29:50;;;;;;;3.58;3.28;;;;;22.20;100745.00;;;;2063359;28;20207;-67
2021/08/30 03:30:52;;;;;;;3.33;3.13;;;;;22.20;100746.00;;;;2071458;28;20736;-67
2021/08/30 03:31:53;;;;;;;3.58;3.30;;;;;22.20;100748.00;;;;2071399;28;20237;-67
2021/08/30 03:32:53;;;;;;;3.50;3.20;;;;;22.20;100745.00;;;;2063485;28;20740;-67
2021/08/30 03:33:54;;;;;;;3.50;3.20;;;;;22.20;100745.00;;;;2071295;28;20203;-67
2021/08/30 03:34:55;;;;;;;3.05;2.85;;;;;22.20;100752.00;;;;2071344;28;20692;-67
2021/08/30 03:35:55;;;;;;;3.37;3.07;;;;;22.20;100751.00;;;;2069720;28;20264;-67
2021/08/30 03:36:55;;;;;;;3.83;3.53;;;;;22.20;100742.00;;;;2071459;28;20213;-68
2021/08/30 03:37:56;;;;;;;3.60;3.30;;;;;22.20;100744.00;;;;2070849;28;20268;-67
2021/08/30 03:38:57;;;;;;;3.33;3.03;;;;;22.20;100740.00;;;;2063196;28;20225;-67
2021/08/30 03:39:57;;;;;;;3.00;2.80;;;;;22.20;100738.00;;;;2071417;28;20260;-68
2021/08/30 03:40:58;;;;;;;3.60;3.30;;;;;22.20;100739.00;;;;2061506;28;20304;-68
2021/08/30 03:41:59;;;;;;;3.60;3.30;;;;;22.20;100736.00;;;;2051107;28;20218;-68
2021/08/30 03:43:00;;;;;;;3.28;3.08;;;;;22.20;100735.00;;;;2043403;28;20216;-68
2021/08/30 03:44:00;;;;;;;3.30;3.00;;;;;22.20;100738.00;;;;2062252;28;20294;-68
2021/08/30 03:45:00;;;;;;;2.90;2.70;;;;;22.20;100742.00;;;;2055217;28;20208;-68
2021/08/30 03:46:01;;;;;;;3.40;3.00;;;;;22.20;100747.00;;;;2055046;28;20207;-68
2021/08/30 03:47:01;;;;;;;3.60;3.30;;;;;22.20;100741.00;;;;2063111;28;20208;-67
2021/08/30 03:48:01;;;;;;;3.40;3.20;;;;;22.20;100737.00;;;;2055269;28;20690;-67
2021/08/30 03:49:02;;;;;;;3.80;3.50;;;;;22.20;100741.00;;;;2046997;28;20224;-67
2021/08/30 03:50:02;;;;;;;3.47;3.17;;;;;22.20;100742.00;;;;2055097;28;20227;-68
2021/08/30 03:51:04;;;;;;;3.50;3.20;;;;;22.20;100740.00;;;;2063273;28;20226;-68
2021/08/30 03:52:04;;;;;;;3.38;3.08;;;;;22.20;100741.00;;;;2069980;28;20523;-68
2021/08/30 03:53:05;;;;;;;3.23;3.03;;;;;22.20;100748.00;;;;2058912;28;20216;-68
2021/08/30 03:54:05;;;;;;;3.27;2.97;;;;;22.20;100751.00;;;;2063082;28;20219;-68
2021/08/30 03:55:10;;;;;;;3.60;3.40;;;;;22.20;100746.00;;;;2071257;28;20206;-68
2021/08/30 03:56:11;;;;;;;3.70;3.40;;;;;22.20;100743.00;;;;2055577;28;20215;-67
2021/08/30 03:57:14;;;;;;;3.07;2.87;;;;;22.20;100746.00;;;;2063644;28;20207;-68
2021/08/30 03:58:16;;;;;;;3.70;3.47;;;;;22.20;100745.00;;;;2071016;28;20253;-67
2021/08/30 03:59:16;;;;;;;3.60;3.30;;;;;22.20;100732.00;;;;2071214;28;20293;-67
2021/08/30 04:00:17;;;;;;;3.10;2.90;;;;;22.20;100740.00;;;;2059064;28;20242;-68
2021/08/30 04:01:23;;;;;;;3.53;3.23;;;;;22.20;100742.00;;;;2051344;28;20212;-67
2021/08/30 04:02:25;;;;;;;3.25;3.03;;;;;22.20;100741.00;;;;2055795;28;20208;-68
2021/08/30 04:03:25;;;;;;;3.60;3.30;;;;;22.20;100732.00;;;;2056878;28;20724;-68
2021/08/30 04:04:25;;;;;;;3.23;3.03;;;;;22.20;100740.00;;;;2063135;28;20225;-67
2021/08/30 04:05:28;;;;;;;3.33;3.13;;;;;22.20;100745.00;;;;2063253;28;20238;-68
2021/08/30 04:06:30;;;;;;;3.10;2.90;;;;;22.20;100744.00;;;;2063110;28;20222;-67
2021/08/30 04:07:31;;;;;;;3.58;3.28;;;;;22.20;100743.00;;;;2055443;28;20968;-67
2021/08/30 04:08:32;;;;;;;4.00;3.70;;;;;22.20;100737.00;;;;2063329;28;20222;-68
2021/08/30 04:09:32;;;;;;;3.67;3.40;;;;;22.20;100744.00;;;;2062881;28;20556;-67
2021/08/30 04:10:33;;;;;;;3.20;2.90;;;;;22.20;100741.00;;;;2062999;28;20235;-67
2021/08/30 04:11:33;;;;;;;3.93;3.63;;;;;22.20;100737.00;;;;2063133;28;20250;-67
2021/08/30 04:12:33;;;;;;;3.37;3.17;;;;;22.20;100726.00;;;;2054828;28;20223;-68
2021/08/30 04:13:34;;;;;;;3.87;3.57;;;;;22.20;100736.00;;;;2063062;28;20273;-67
2021/08/30 04:14:34;;;;;;;3.80;3.50;;;;;22.20;100732.00;;;;2065174;28;21168;-67
2021/08/30 04:15:34;;;;;;;3.67;3.37;;;;;22.20;100741.00;;;;2071065;28;20254;-67
2021/08/30 04:16:35;;;;;;;3.30;3.00;;;;;22.10;100742.00;;;;2058052;28;20761;-67
2021/08/30 04:17:35;;;;;;;4.07;3.77;;;;;22.20;100741.00;;;;2064176;28;20304;-67
2021/08/30 04:18:35;;;;;;;3.23;3.00;;;;;22.20;100738.00;;;;2070086;28;20229;-67
2021/08/30 04:19:36;;;;;;;3.60;3.37;;;;;22.20;100742.00;;;;2071580;28;20218;-67
2021/08/30 04:20:36;;;;;;;3.90;3.60;;;;;22.20;100737.00;;;;2071779;28;20368;-67
2021/08/30 04:21:36;;;;;;;3.97;3.67;;;;;22.20;100740.00;;;;2071785;28;20374;-67
2021/08/30 04:22:37;;;;;;;4.00;3.70;;;;;22.20;100739.00;;;;2071887;28;20226;-66
2021/08/30 04:23:37;;;;;;;3.93;3.63;;;;;22.20;100740.00;;;;2071495;28;20230;-67
2021/08/30 04:24:37;;;;;;;3.60;3.30;;;;;22.20;100736.00;;;;2071867;28;20230;-67
2021/08/30 04:25:38;;;;;;;3.63;3.33;;;;;22.20;100740.00;;;;2071702;28;20225;-67
2021/08/30 04:26:38;;;;;;;3.70;3.40;;;;;22.20;100740.00;;;;2071546;28;20299;-67
2021/08/30 04:27:39;;;;;;;3.70;3.40;;;;;22.20;100739.00;;;;2071838;28;20225;-67
2021/08/30 04:28:39;;;;;;;4.00;3.70;;;;;22.20;100748.00;;;;2071680;28;20700;-67
2021/08/30 04:29:40;;;;;;;3.73;3.43;;;;;22.20;100700.00;;;;2071667;28;20700;-67
2021/08/30 04:30:40;;;;;;;3.47;3.17;;;;;22.20;100753.00;;;;2071092;28;20238;-67
2021/08/30 04:31:40;;;;;;;3.50;3.30;;;;;22.20;100745.00;;;;2071064;28;20664;-67
2021/08/30 04:32:41;;;;;;;3.87;3.57;;;;;22.20;100747.00;;;;2071707;28;20218;-67
2021/08/30 04:33:41;;;;;;;3.50;3.20;;;;;22.20;100752.00;;;;2071137;28;20226;-67
2021/08/30 04:34:42;;;;;;;3.40;3.10;;;;;22.20;100750.00;;;;2071143;28;20692;-67
2021/08/30 04:35:42;;;;;;;3.70;3.47;;;;;22.20;100753.00;;;;2071338;28;20628;-67
2021/08/30 04:36:43;;;;;;;3.90;3.60;;;;;22.20;100748.00;;;;2071121;28;20264;-67
2021/08/30 04:37:43;;;;;;;3.60;3.30;;;;;22.20;100748.00;;;;2070972;28;20214;-67
2021/08/30 04:38:43;;;;;;;4.13;3.83;;;;;22.20;100757.00;;;;2071400;28;20225;-66
2021/08/30 04:39:44;;;;;;;3.33;3.13;;;;;22.20;100750.00;;;;2071493;28;20229;-67
2021/08/30 04:40:44;;;;;;;3.63;3.40;;;;;22.20;100751.00;;;;2071591;28;20267;-67
2021/08/30 04:41:44;;;;;;;4.10;3.80;;;;;22.20;100753.00;;;;2071044;28;20222;-66
2021/08/30 04:42:45;;;;;;;3.97;3.67;;;;;22.20;100751.00;;;;2071016;28;20221;-66
2021/08/30 04:43:45;;;;;;;3.67;3.37;;;;;22.20;100750.00;;;;2071048;28;20221;-67
2021/08/30 04:44:46;;;;;;;3.50;3.30;;;;;22.20;100754.00;;;;2070686;28;20233;-67
2021/08/30 04:45:46;;;;;;;4.17;3.87;;;;;22.20;100753.00;;;;2071632;28;20226;-67
2021/08/30 04:46:46;;;;;;;3.90;3.60;;;;;22.20;100749.00;;;;2071590;28;20230;-66
2021/08/30 04:47:47;;;;;;;4.03;3.73;;;;;22.20;100751.00;;;;2071715;28;20222;-67
2021/08/30 04:48:47;;;;;;;3.93;3.63;;;;;22.20;100754.00;;;;2071627;28;20217;-67
2021/08/30 04:49:48;;;;;;;4.17;3.83;;;;;22.20;100755.00;;;;2071677;28;20224;-67
2021/08/30 04:50:48;;;;;;;3.73;3.43;;;;;22.20;100756.00;;;;2071684;28;20229;-67
2021/08/30 04:51:48;;;;;;;3.83;3.53;;;;;22.20;100751.00;;;;2071436;28;20221;-67
2021/08/30 04:52:49;;;;;;;3.90;3.60;;;;;22.20;100756.00;;;;2071233;28;20253;-67
2021/08/30 04:53:49;;;;;;;4.03;3.70;;;;;22.20;100746.00;;;;2061039;28;20214;-67
2021/08/30 04:54:49;;;;;;;3.60;3.30;;;;;22.20;100750.00;;;;2070636;28;20218;-67
2021/08/30 04:55:50;;;;;;;3.77;3.47;;;;;22.20;100748.00;;;;2070394;28;20217;-67
2021/08/30 04:56:50;;;;;;;3.90;3.60;;;;;22.20;100757.00;;;;2070967;28;20216;-67
2021/08/30 04:57:50;;;;;;;4.03;3.73;;;;;22.20;100755.00;;;;2071516;28;20210;-67
2021/08/30 04:58:51;;;;;;;4.17;3.87;;;;;22.20;100765.00;;;;2070342;28;20293;-67
2021/08/30 04:59:51;;;;;;;3.53;3.23;;;;;22.20;100759.00;;;;2062949;28;20677;-67
2021/08/30 05:00:51;;;;;;;4.10;3.80;;;;;22.20;100760.00;;;;2070911;28;20237;-66
2021/08/30 05:01:52;;;;;;;3.70;3.40;;;;;22.20;100762.00;;;;2071426;28;20214;-67
2021/08/30 05:02:52;;;;;;;3.73;3.47;;;;;22.20;100763.00;;;;2071305;28;20218;-68
2021/08/30 05:03:53;;;;;;;4.20;3.90;;;;;22.20;100763.00;;;;2071514;28;20276;-67
2021/08/30 05:04:55;;;;;;;4.40;4.10;;;;;22.20;100763.00;;;;2070947;28;20217;-68
2021/08/30 05:05:55;;;;;;;4.15;3.85;;;;;22.20;100756.00;;;;2070645;28;20683;-67
2021/08/30 05:06:56;;;;;;;4.00;3.70;;;;;22.20;100759.00;;;;2071426;28;20313;-66